Gaz Palmyra — 3FCO4 — position and weather

sailwx.info

Track history (hours):
 
Tides and Currents Weather Stations Pressure Air Temp Water Temp Dewpoint Dewpoint Depression Visibility Wind Speed Wind Dir Waves Ship Positions

Gaz Palmyra

Last reported at 2016-Aug-27 11:25 UTC. Time now 2016-Aug-29 03:43 UTC.
Position N 36°46' E 003°05'.

Length 137 m; draft 8.1 m.

Type: Ship (hazmat cat C). MMSI: 353247000.

Date/timePositionNaut miles runAvg speedWind from/ knotsBaromVisibWave heightAir tempDewpointWater temp
2016-Aug-27 11:25N 36°46' E 003°05'128 9.2
2016-Aug-26 21:26N 36°27' E 000°27'9 9.6
2016-Aug-26 20:32N 36°21' E 000°19'10 9.1
2016-Aug-26 19:27N 36°13' E 000°11'19 9.4
2016-Aug-26 17:28N 35°60' W 000°05'10 8.9
2016-Aug-26 16:23N 35°52' W 000°12'2 0.1
2016-Aug-25 10:33N 35°54' W 000°11'4 1.1
2016-Aug-25 07:24N 35°57' W 000°08'4 0.5
2016-Aug-24 23:26N 36°01' W 000°08'1 0.4
2016-Aug-24 20:27N 36°00' W 000°08'2 0.5
2016-Aug-24 15:32N 35°58' W 000°06'6 6.3
2016-Aug-24 14:31N 35°53' W 000°10'6 1.4
2016-Aug-24 10:33N 35°58' W 000°08'1 0.1
2016-Aug-24 01:33N 35°59' W 000°07'4 3.5
2016-Aug-24 00:33N 35°56' W 000°10'2 2.4
2016-Aug-23 23:33N 35°54' W 000°12'7 1.9
2016-Aug-23 20:06N 35°59' W 000°07'2 2.1
2016-Aug-23 19:08N 36°01' W 000°06'2 2.1
2016-Aug-23 18:03N 36°03' W 000°04'35 2.6
2016-Aug-23 04:31N 36°27' E 000°26'3410.0
2016-Aug-23 01:07N 36°45' E 001°02'610.0
2016-Aug-23 00:28N 36°46' E 001°10'  
Track history (hours):
 
Tides and Currents Weather Stations Pressure Air Temp Water Temp Dewpoint Dewpoint Depression Visibility Wind Speed Wind Dir Waves Ship Positions

Gaz Palmyra

Last reported at 2016-Aug-27 11:25 UTC. Time now 2016-Aug-29 03:43 UTC.
Position N 36°46' E 003°05'.

Length 137 m; draft 8.1 m.

Type: Ship (hazmat cat C). MMSI: 353247000.

Date/timePositionNaut miles runAvg speedWind from/ knotsBaromVisibWave heightAir tempDewpointWater temp
2016-Aug-27 11:25N 36°46' E 003°05'128 9.2
2016-Aug-26 21:26N 36°27' E 000°27'9 9.6
2016-Aug-26 20:32N 36°21' E 000°19'10 9.1
2016-Aug-26 19:27N 36°13' E 000°11'19 9.4
2016-Aug-26 17:28N 35°60' W 000°05'10 8.9
2016-Aug-26 16:23N 35°52' W 000°12'2 0.1
2016-Aug-25 10:33N 35°54' W 000°11'4 1.1
2016-Aug-25 07:24N 35°57' W 000°08'4 0.5
2016-Aug-24 23:26N 36°01' W 000°08'1 0.4
2016-Aug-24 20:27N 36°00' W 000°08'2 0.5
2016-Aug-24 15:32N 35°58' W 000°06'6 6.3
2016-Aug-24 14:31N 35°53' W 000°10'6 1.4
2016-Aug-24 10:33N 35°58' W 000°08'1 0.1
2016-Aug-24 01:33N 35°59' W 000°07'4 3.5
2016-Aug-24 00:33N 35°56' W 000°10'2 2.4
2016-Aug-23 23:33N 35°54' W 000°12'7 1.9
2016-Aug-23 20:06N 35°59' W 000°07'2 2.1
2016-Aug-23 19:08N 36°01' W 000°06'2 2.1
2016-Aug-23 18:03N 36°03' W 000°04'35 2.6
2016-Aug-23 04:31N 36°27' E 000°26'3410.0
2016-Aug-23 01:07N 36°45' E 001°02'610.0
2016-Aug-23 00:28N 36°46' E 001°10'  

Dump ship's entire track history